Utica, Illinois
Current Conditions -  °F | °C
As of 2:15 AM on Friday 24 Oct 2014 (Local Time) from KVYS Reporting Station
Scattered Clouds Scattered Clouds  
Wind Chill: 52°   Ceiling: Unl
Heat Index: 52°   Visibility: 10mi
Dew Point: 46°   Wind: 5mph
Humidity: 79%   Direction: 240°WSW
Pressure: 30.05"   Gusts: NA
Location:  41.34°N, 89.01°W
Report Text: KVYS 240715Z AUTO 24004KT 10SM SCT032 11/08 A3005 RMK AO2 T01100075
Loading
Personal Weather Stations






























Interactive Weather Map
Tropical Storm Tracking
New forecast layout! Learn more

10-Day Weather Forecast

Advertisements
Track Severe Weather on mobile